sensor_id;sensor_type;location;lat;lon;timestamp;temperature;humidity
77467;DHT22;66564;42.482;25.548;2023-06-10T00:02:04;20.20;56.52
77467;DHT22;66564;42.482;25.548;2023-06-10T00:04:30;20.23;57.01
77467;DHT22;66564;42.482;25.548;2023-06-10T00:06:55;20.17;57.17
77467;DHT22;66564;42.482;25.548;2023-06-10T00:09:22;20.16;57.21
77467;DHT22;66564;42.482;25.548;2023-06-10T00:11:48;20.09;57.02
77467;DHT22;66564;42.482;25.548;2023-06-10T00:14:13;20.06;57.42
77467;DHT22;66564;42.482;25.548;2023-06-10T00:16:39;20.03;57.21
77467;DHT22;66564;42.482;25.548;2023-06-10T00:19:05;20.00;57.25
77467;DHT22;66564;42.482;25.548;2023-06-10T00:21:32;20.03;57.40
77467;DHT22;66564;42.482;25.548;2023-06-10T00:24:06;19.96;57.37
77467;DHT22;66564;42.482;25.548;2023-06-10T00:26:33;19.97;57.57
77467;DHT22;66564;42.482;25.548;2023-06-10T00:28:59;20.00;57.29
77467;DHT22;66564;42.482;25.548;2023-06-10T00:31:25;19.96;57.21
77467;DHT22;66564;42.482;25.548;2023-06-10T00:33:52;19.98;56.64
77467;DHT22;66564;42.482;25.548;2023-06-10T00:36:17;19.96;56.93
77467;DHT22;66564;42.482;25.548;2023-06-10T00:38:43;19.90;57.79
77467;DHT22;66564;42.482;25.548;2023-06-10T00:41:08;19.84;57.50
77467;DHT22;66564;42.482;25.548;2023-06-10T00:43:34;19.87;57.65
77467;DHT22;66564;42.482;25.548;2023-06-10T00:46:00;19.86;57.62
77467;DHT22;66564;42.482;25.548;2023-06-10T00:48:26;19.84;57.50
77467;DHT22;66564;42.482;25.548;2023-06-10T00:50:52;19.80;57.48
77467;DHT22;66564;42.482;25.548;2023-06-10T00:53:18;19.76;57.72
77467;DHT22;66564;42.482;25.548;2023-06-10T00:55:43;19.74;57.89
77467;DHT22;66564;42.482;25.548;2023-06-10T00:58:09;19.74;57.62
77467;DHT22;66564;42.482;25.548;2023-06-10T01:00:35;19.70;57.65
77467;DHT22;66564;42.482;25.548;2023-06-10T01:03:01;19.74;57.69
77467;DHT22;66564;42.482;25.548;2023-06-10T01:05:26;19.76;57.22
77467;DHT22;66564;42.482;25.548;2023-06-10T01:08:19;19.74;56.94
77467;DHT22;66564;42.482;25.548;2023-06-10T01:10:53;19.74;56.81
77467;DHT22;66564;42.482;25.548;2023-06-10T01:13:22;19.74;56.80
77467;DHT22;66564;42.482;25.548;2023-06-10T01:15:55;19.74;56.23
77467;DHT22;66564;42.482;25.548;2023-06-10T01:18:21;19.73;56.54
77467;DHT22;66564;42.482;25.548;2023-06-10T01:20:47;19.73;56.75
77467;DHT22;66564;42.482;25.548;2023-06-10T01:23:14;19.66;56.80
77467;DHT22;66564;42.482;25.548;2023-06-10T01:25:43;19.60;57.40
77467;DHT22;66564;42.482;25.548;2023-06-10T01:31:38;19.55;57.64
77467;DHT22;66564;42.482;25.548;2023-06-10T01:33:41;19.52;57.67
77467;DHT22;66564;42.482;25.548;2023-06-10T01:36:08;19.55;57.50
77467;DHT22;66564;42.482;25.548;2023-06-10T01:38:40;19.52;57.42
77467;DHT22;66564;42.482;25.548;2023-06-10T01:41:06;19.52;57.38
77467;DHT22;66564;42.482;25.548;2023-06-10T01:43:33;19.56;57.19
77467;DHT22;66564;42.482;25.548;2023-06-10T01:45:59;19.56;57.15
77467;DHT22;66564;42.482;25.548;2023-06-10T01:48:25;19.55;57.34
77467;DHT22;66564;42.482;25.548;2023-06-10T01:50:50;19.55;57.26
77467;DHT22;66564;42.482;25.548;2023-06-10T01:53:16;19.55;57.21
77467;DHT22;66564;42.482;25.548;2023-06-10T01:55:41;19.53;57.09
77467;DHT22;66564;42.482;25.548;2023-06-10T01:58:07;19.56;57.11
77467;DHT22;66564;42.482;25.548;2023-06-10T02:00:32;19.56;57.09
77467;DHT22;66564;42.482;25.548;2023-06-10T02:02:57;19.53;57.07
77467;DHT22;66564;42.482;25.548;2023-06-10T02:05:23;19.53;56.95
77467;DHT22;66564;42.482;25.548;2023-06-10T02:07:49;19.55;56.86
77467;DHT22;66564;42.482;25.548;2023-06-10T02:10:14;19.53;56.73
77467;DHT22;66564;42.482;25.548;2023-06-10T02:12:40;19.52;56.65
77467;DHT22;66564;42.482;25.548;2023-06-10T02:15:05;19.49;56.74
77467;DHT22;66564;42.482;25.548;2023-06-10T02:17:31;19.45;56.82
77467;DHT22;66564;42.482;25.548;2023-06-10T02:19:57;19.43;56.95
77467;DHT22;66564;42.482;25.548;2023-06-10T02:22:25;19.40;57.02
77467;DHT22;66564;42.482;25.548;2023-06-10T02:24:50;19.38;57.24
77467;DHT22;66564;42.482;25.548;2023-06-10T02:27:18;19.38;57.38
77467;DHT22;66564;42.482;25.548;2023-06-10T02:29:43;19.35;57.30
77467;DHT22;66564;42.482;25.548;2023-06-10T02:32:09;19.33;57.48
77467;DHT22;66564;42.482;25.548;2023-06-10T02:34:35;19.33;57.35
77467;DHT22;66564;42.482;25.548;2023-06-10T02:37:01;19.30;57.47
77467;DHT22;66564;42.482;25.548;2023-06-10T02:39:28;19.28;57.52
77467;DHT22;66564;42.482;25.548;2023-06-10T02:41:53;19.26;57.77
77467;DHT22;66564;42.482;25.548;2023-06-10T02:44:19;19.30;57.76
77467;DHT22;66564;42.482;25.548;2023-06-10T02:46:44;19.33;57.65
77467;DHT22;66564;42.482;25.548;2023-06-10T02:49:22;19.33;57.54
77467;DHT22;66564;42.482;25.548;2023-06-10T02:52:00;19.33;58.14
77467;DHT22;66564;42.482;25.548;2023-06-10T02:54:25;19.32;58.05
77467;DHT22;66564;42.482;25.548;2023-06-10T02:56:52;19.30;58.10
77467;DHT22;66564;42.482;25.548;2023-06-10T02:59:18;19.33;57.82
77467;DHT22;66564;42.482;25.548;2023-06-10T03:01:46;19.32;58.29
77467;DHT22;66564;42.482;25.548;2023-06-10T03:04:11;19.35;57.83
77467;DHT22;66564;42.482;25.548;2023-06-10T03:06:38;19.38;57.37
77467;DHT22;66564;42.482;25.548;2023-06-10T03:09:06;19.38;57.71
77467;DHT22;66564;42.482;25.548;2023-06-10T03:11:32;19.35;57.76
77467;DHT22;66564;42.482;25.548;2023-06-10T03:13:58;19.38;58.53
77467;DHT22;66564;42.482;25.548;2023-06-10T03:16:24;19.39;59.66
77467;DHT22;66564;42.482;25.548;2023-06-10T03:18:50;19.39;59.60
77467;DHT22;66564;42.482;25.548;2023-06-10T03:21:16;19.36;60.26
77467;DHT22;66564;42.482;25.548;2023-06-10T03:23:42;19.39;60.88
77467;DHT22;66564;42.482;25.548;2023-06-10T03:26:07;19.42;60.22
77467;DHT22;66564;42.482;25.548;2023-06-10T03:28:33;19.43;60.07
77467;DHT22;66564;42.482;25.548;2023-06-10T03:30:59;19.46;59.85
77467;DHT22;66564;42.482;25.548;2023-06-10T03:33:24;19.53;60.05
77467;DHT22;66564;42.482;25.548;2023-06-10T03:35:50;19.53;59.53
77467;DHT22;66564;42.482;25.548;2023-06-10T03:38:16;19.58;58.72
77467;DHT22;66564;42.482;25.548;2023-06-10T03:40:41;19.55;58.44
77467;DHT22;66564;42.482;25.548;2023-06-10T03:43:07;19.55;58.03
77467;DHT22;66564;42.482;25.548;2023-06-10T03:45:32;19.60;58.56
77467;DHT22;66564;42.482;25.548;2023-06-10T03:47:58;19.59;58.77
77467;DHT22;66564;42.482;25.548;2023-06-10T03:50:24;19.60;59.30
77467;DHT22;66564;42.482;25.548;2023-06-10T03:52:50;19.63;59.43
77467;DHT22;66564;42.482;25.548;2023-06-10T03:55:16;19.65;60.30
77467;DHT22;66564;42.482;25.548;2023-06-10T03:57:42;19.69;60.40
77467;DHT22;66564;42.482;25.548;2023-06-10T04:00:09;19.72;60.42
77467;DHT22;66564;42.482;25.548;2023-06-10T04:02:41;19.70;60.38
77467;DHT22;66564;42.482;25.548;2023-06-10T04:05:15;19.80;60.59
77467;DHT22;66564;42.482;25.548;2023-06-10T04:07:41;19.82;59.94
77467;DHT22;66564;42.482;25.548;2023-06-10T04:10:08;19.83;59.50
77467;DHT22;66564;42.482;25.548;2023-06-10T04:12:34;19.87;59.60
77467;DHT22;66564;42.482;25.548;2023-06-10T04:15:00;19.90;59.82
77467;DHT22;66564;42.482;25.548;2023-06-10T04:17:26;19.93;58.40
77467;DHT22;66564;42.482;25.548;2023-06-10T04:19:52;20.00;57.38
77467;DHT22;66564;42.482;25.548;2023-06-10T04:22:18;20.01;57.31
77467;DHT22;66564;42.482;25.548;2023-06-10T04:24:44;20.10;56.53
77467;DHT22;66564;42.482;25.548;2023-06-10T04:27:10;20.06;56.59
77467;DHT22;66564;42.482;25.548;2023-06-10T04:29:35;20.09;57.08
77467;DHT22;66564;42.482;25.548;2023-06-10T04:32:02;20.14;57.08
77467;DHT22;66564;42.482;25.548;2023-06-10T04:34:28;20.24;57.30
77467;DHT22;66564;42.482;25.548;2023-06-10T04:36:53;20.33;58.34
77467;DHT22;66564;42.482;25.548;2023-06-10T04:39:19;20.38;57.80
77467;DHT22;66564;42.482;25.548;2023-06-10T04:41:45;20.44;57.54
77467;DHT22;66564;42.482;25.548;2023-06-10T04:44:11;20.51;57.36
77467;DHT22;66564;42.482;25.548;2023-06-10T04:46:37;20.63;57.29
77467;DHT22;66564;42.482;25.548;2023-06-10T04:49:03;20.75;57.06
77467;DHT22;66564;42.482;25.548;2023-06-10T04:51:30;20.85;56.70
77467;DHT22;66564;42.482;25.548;2023-06-10T04:53:55;20.94;56.73
77467;DHT22;66564;42.482;25.548;2023-06-10T04:56:21;21.05;56.88
77467;DHT22;66564;42.482;25.548;2023-06-10T04:58:47;21.15;57.05
77467;DHT22;66564;42.482;25.548;2023-06-10T05:01:12;21.28;57.45
77467;DHT22;66564;42.482;25.548;2023-06-10T05:03:38;21.38;57.68
77467;DHT22;66564;42.482;25.548;2023-06-10T05:06:03;21.41;57.29
77467;DHT22;66564;42.482;25.548;2023-06-10T05:08:29;21.56;56.94
77467;DHT22;66564;42.482;25.548;2023-06-10T05:10:55;21.66;57.71
77467;DHT22;66564;42.482;25.548;2023-06-10T05:13:20;21.79;58.56
77467;DHT22;66564;42.482;25.548;2023-06-10T05:15:46;21.90;59.76
77467;DHT22;66564;42.482;25.548;2023-06-10T05:18:11;21.93;59.27
77467;DHT22;66564;42.482;25.548;2023-06-10T05:20:38;22.08;58.58
77467;DHT22;66564;42.482;25.548;2023-06-10T05:23:03;22.21;58.65
77467;DHT22;66564;42.482;25.548;2023-06-10T05:25:32;22.33;58.75
77467;DHT22;66564;42.482;25.548;2023-06-10T05:27:58;22.41;58.14
77467;DHT22;66564;42.482;25.548;2023-06-10T05:30:24;22.38;56.21
77467;DHT22;66564;42.482;25.548;2023-06-10T05:32:50;22.51;56.43
77467;DHT22;66564;42.482;25.548;2023-06-10T05:35:18;22.60;55.20
77467;DHT22;66564;42.482;25.548;2023-06-10T05:37:43;22.67;53.24
77467;DHT22;66564;42.482;25.548;2023-06-10T05:40:09;22.89;52.46
77467;DHT22;66564;42.482;25.548;2023-06-10T05:42:35;23.05;52.29
77467;DHT22;66564;42.482;25.548;2023-06-10T05:45:01;23.25;55.35
77467;DHT22;66564;42.482;25.548;2023-06-10T05:47:27;23.42;55.48
77467;DHT22;66564;42.482;25.548;2023-06-10T05:49:53;23.56;54.38
77467;DHT22;66564;42.482;25.548;2023-06-10T05:52:18;23.62;53.71
77467;DHT22;66564;42.482;25.548;2023-06-10T05:54:44;23.74;54.70
77467;DHT22;66564;42.482;25.548;2023-06-10T05:57:09;23.86;54.38
77467;DHT22;66564;42.482;25.548;2023-06-10T05:59:35;23.93;53.49
77467;DHT22;66564;42.482;25.548;2023-06-10T06:02:01;24.07;53.36
77467;DHT22;66564;42.482;25.548;2023-06-10T06:04:26;24.16;51.77
77467;DHT22;66564;42.482;25.548;2023-06-10T06:06:52;24.16;49.91
77467;DHT22;66564;42.482;25.548;2023-06-10T06:09:17;24.25;50.68
77467;DHT22;66564;42.482;25.548;2023-06-10T06:11:43;24.28;49.34
77467;DHT22;66564;42.482;25.548;2023-06-10T06:14:08;24.34;49.08
77467;DHT22;66564;42.482;25.548;2023-06-10T06:16:34;24.40;48.68
77467;DHT22;66564;42.482;25.548;2023-06-10T06:18:59;24.42;48.40
77467;DHT22;66564;42.482;25.548;2023-06-10T06:21:25;24.44;48.93
77467;DHT22;66564;42.482;25.548;2023-06-10T06:23:50;24.54;50.21
77467;DHT22;66564;42.482;25.548;2023-06-10T06:26:16;24.65;49.91
77467;DHT22;66564;42.482;25.548;2023-06-10T06:28:41;24.81;49.19
77467;DHT22;66564;42.482;25.548;2023-06-10T06:31:07;24.94;48.68
77467;DHT22;66564;42.482;25.548;2023-06-10T06:33:32;25.12;47.00
77467;DHT22;66564;42.482;25.548;2023-06-10T06:35:58;25.27;47.06
77467;DHT22;66564;42.482;25.548;2023-06-10T06:38:25;25.51;46.60
77467;DHT22;66564;42.482;25.548;2023-06-10T06:40:51;25.73;46.64
77467;DHT22;66564;42.482;25.548;2023-06-10T06:43:17;25.86;46.50
77467;DHT22;66564;42.482;25.548;2023-06-10T06:45:44;26.03;46.60
77467;DHT22;66564;42.482;25.548;2023-06-10T06:48:11;26.05;45.41
77467;DHT22;66564;42.482;25.548;2023-06-10T06:50:36;26.10;45.41
77467;DHT22;66564;42.482;25.548;2023-06-10T06:53:02;26.20;44.95
77467;DHT22;66564;42.482;25.548;2023-06-10T06:55:28;26.30;45.66
77467;DHT22;66564;42.482;25.548;2023-06-10T06:57:54;26.51;45.41
77467;DHT22;66564;42.482;25.548;2023-06-10T07:00:19;26.81;44.78
77467;DHT22;66564;42.482;25.548;2023-06-10T07:02:45;27.00;42.44
77467;DHT22;66564;42.482;25.548;2023-06-10T07:05:10;27.25;42.43
77467;DHT22;66564;42.482;25.548;2023-06-10T07:07:36;27.40;42.02
77467;DHT22;66564;42.482;25.548;2023-06-10T07:10:02;27.57;41.38
77467;DHT22;66564;42.482;25.548;2023-06-10T07:12:27;27.80;39.94
77467;DHT22;66564;42.482;25.548;2023-06-10T07:14:53;27.98;40.91
77467;DHT22;66564;42.482;25.548;2023-06-10T07:17:18;28.18;40.07
77467;DHT22;66564;42.482;25.548;2023-06-10T07:19:45;28.34;38.39
77467;DHT22;66564;42.482;25.548;2023-06-10T07:22:10;28.57;37.85
77467;DHT22;66564;42.482;25.548;2023-06-10T07:24:36;28.76;39.40
77467;DHT22;66564;42.482;25.548;2023-06-10T07:27:02;29.03;38.89
77467;DHT22;66564;42.482;25.548;2023-06-10T07:29:27;29.23;37.52
77467;DHT22;66564;42.482;25.548;2023-06-10T07:31:53;29.50;36.57
77467;DHT22;66564;42.482;25.548;2023-06-10T07:34:19;29.70;38.02
77467;DHT22;66564;42.482;25.548;2023-06-10T07:36:44;29.93;38.22
77467;DHT22;66564;42.482;25.548;2023-06-10T07:39:10;30.11;37.31
77467;DHT22;66564;42.482;25.548;2023-06-10T07:41:35;30.29;36.92
77467;DHT22;66564;42.482;25.548;2023-06-10T07:44:01;30.42;35.65
77467;DHT22;66564;42.482;25.548;2023-06-10T07:46:26;30.49;33.28
77467;DHT22;66564;42.482;25.548;2023-06-10T07:48:53;30.68;36.88
77467;DHT22;66564;42.482;25.548;2023-06-10T07:51:19;30.82;36.08
77467;DHT22;66564;42.482;25.548;2023-06-10T07:53:44;30.91;36.79
77467;DHT22;66564;42.482;25.548;2023-06-10T07:56:10;31.02;35.64
77467;DHT22;66564;42.482;25.548;2023-06-10T07:58:35;30.95;34.81
77467;DHT22;66564;42.482;25.548;2023-06-10T08:01:01;30.92;34.36
77467;DHT22;66564;42.482;25.548;2023-06-10T08:03:26;30.93;35.61
77467;DHT22;66564;42.482;25.548;2023-06-10T08:05:52;30.91;36.09
77467;DHT22;66564;42.482;25.548;2023-06-10T08:08:17;30.88;35.10
77467;DHT22;66564;42.482;25.548;2023-06-10T08:10:43;30.81;35.88
77467;DHT22;66564;42.482;25.548;2023-06-10T08:13:08;30.76;35.26
77467;DHT22;66564;42.482;25.548;2023-06-10T08:15:34;30.67;35.90
77467;DHT22;66564;42.482;25.548;2023-06-10T08:18:00;30.64;35.99
77467;DHT22;66564;42.482;25.548;2023-06-10T08:20:25;30.59;35.92
77467;DHT22;66564;42.482;25.548;2023-06-10T08:22:51;30.67;36.47
77467;DHT22;66564;42.482;25.548;2023-06-10T08:25:17;30.62;36.76
77467;DHT22;66564;42.482;25.548;2023-06-10T08:27:42;30.72;39.00
77467;DHT22;66564;42.482;25.548;2023-06-10T08:30:08;30.92;38.72
77467;DHT22;66564;42.482;25.548;2023-06-10T08:32:36;31.06;38.19
77467;DHT22;66564;42.482;25.548;2023-06-10T08:35:02;31.12;36.53
77467;DHT22;66564;42.482;25.548;2023-06-10T08:37:27;31.26;35.90
77467;DHT22;66564;42.482;25.548;2023-06-10T08:39:53;31.42;33.83
77467;DHT22;66564;42.482;25.548;2023-06-10T08:45:03;31.51;33.42
77467;DHT22;66564;42.482;25.548;2023-06-10T08:47:29;31.49;32.24
77467;DHT22;66564;42.482;25.548;2023-06-10T08:50:02;31.43;32.69
77467;DHT22;66564;42.482;25.548;2023-06-10T08:52:35;31.27;34.91
77467;DHT22;66564;42.482;25.548;2023-06-10T08:55:18;31.30;34.34
77467;DHT22;66564;42.482;25.548;2023-06-10T08:57:48;31.33;34.39
77467;DHT22;66564;42.482;25.548;2023-06-10T09:00:16;31.43;34.72
77467;DHT22;66564;42.482;25.548;2023-06-10T09:02:42;31.46;34.59
77467;DHT22;66564;42.482;25.548;2023-06-10T09:05:09;31.43;34.09
77467;DHT22;66564;42.482;25.548;2023-06-10T09:07:35;31.46;34.64
77467;DHT22;66564;42.482;25.548;2023-06-10T09:10:02;31.40;35.19
77467;DHT22;66564;42.482;25.548;2023-06-10T09:12:29;31.36;35.30
77467;DHT22;66564;42.482;25.548;2023-06-10T09:14:55;31.21;34.37
77467;DHT22;66564;42.482;25.548;2023-06-10T09:17:21;31.00;35.12
77467;DHT22;66564;42.482;25.548;2023-06-10T09:19:47;30.83;35.01
77467;DHT22;66564;42.482;25.548;2023-06-10T09:22:13;30.57;35.39
77467;DHT22;66564;42.482;25.548;2023-06-10T09:24:39;30.37;35.05
77467;DHT22;66564;42.482;25.548;2023-06-10T09:27:06;30.24;35.66
77467;DHT22;66564;42.482;25.548;2023-06-10T09:29:51;30.15;36.08
77467;DHT22;66564;42.482;25.548;2023-06-10T09:32:20;29.83;36.70
77467;DHT22;66564;42.482;25.548;2023-06-10T09:34:46;29.70;37.37
77467;DHT22;66564;42.482;25.548;2023-06-10T09:37:12;29.74;37.93
77467;DHT22;66564;42.482;25.548;2023-06-10T09:39:42;29.66;37.72
77467;DHT22;66564;42.482;25.548;2023-06-10T09:42:17;29.76;35.75
77467;DHT22;66564;42.482;25.548;2023-06-10T09:44:50;29.76;37.54
77467;DHT22;66564;42.482;25.548;2023-06-10T09:47:20;29.87;38.02
77467;DHT22;66564;42.482;25.548;2023-06-10T09:49:48;29.97;37.32
77467;DHT22;66564;42.482;25.548;2023-06-10T09:52:13;30.01;37.01
77467;DHT22;66564;42.482;25.548;2023-06-10T09:54:39;30.00;35.04
77467;DHT22;66564;42.482;25.548;2023-06-10T09:57:08;30.00;34.95
77467;DHT22;66564;42.482;25.548;2023-06-10T09:59:37;30.01;35.00
77467;DHT22;66564;42.482;25.548;2023-06-10T10:02:13;29.84;35.35
77467;DHT22;66564;42.482;25.548;2023-06-10T10:04:38;29.77;35.19
77467;DHT22;66564;42.482;25.548;2023-06-10T10:07:04;29.72;34.89
77467;DHT22;66564;42.482;25.548;2023-06-10T10:09:30;29.46;34.34
77467;DHT22;66564;42.482;25.548;2023-06-10T10:11:56;29.40;35.08
77467;DHT22;66564;42.482;25.548;2023-06-10T10:14:22;29.39;35.93
77467;DHT22;66564;42.482;25.548;2023-06-10T10:16:49;29.42;34.37
77467;DHT22;66564;42.482;25.548;2023-06-10T10:19:25;29.27;33.70
77467;DHT22;66564;42.482;25.548;2023-06-10T10:21:54;29.12;34.00
77467;DHT22;66564;42.482;25.548;2023-06-10T10:24:23;29.10;35.60
77467;DHT22;66564;42.482;25.548;2023-06-10T10:26:54;29.03;36.13
77467;DHT22;66564;42.482;25.548;2023-06-10T10:29:30;28.87;36.20
77467;DHT22;66564;42.482;25.548;2023-06-10T10:31:58;28.88;36.15
77467;DHT22;66564;42.482;25.548;2023-06-10T10:34:48;28.83;36.15
77467;DHT22;66564;42.482;25.548;2023-06-10T10:37:16;28.79;36.72
77467;DHT22;66564;42.482;25.548;2023-06-10T10:39:42;28.82;35.98
77467;DHT22;66564;42.482;25.548;2023-06-10T10:42:08;28.83;36.43
77467;DHT22;66564;42.482;25.548;2023-06-10T10:44:37;28.88;35.87
77467;DHT22;66564;42.482;25.548;2023-06-10T10:47:03;28.88;36.45
77467;DHT22;66564;42.482;25.548;2023-06-10T10:49:32;28.94;36.46
77467;DHT22;66564;42.482;25.548;2023-06-10T10:52:00;29.08;37.11
77467;DHT22;66564;42.482;25.548;2023-06-10T10:54:31;29.23;36.68
77467;DHT22;66564;42.482;25.548;2023-06-10T11:04:58;29.23;34.19
77467;DHT22;66564;42.482;25.548;2023-06-10T11:07:25;29.29;33.39
77467;DHT22;66564;42.482;25.548;2023-06-10T11:10:10;28.94;33.35
77467;DHT22;66564;42.482;25.548;2023-06-10T11:15:22;29.22;35.27
77467;DHT22;66564;42.482;25.548;2023-06-10T11:20:54;29.45;34.94
77467;DHT22;66564;42.482;25.548;2023-06-10T11:29:06;29.80;33.82
77467;DHT22;66564;42.482;25.548;2023-06-10T11:31:38;29.59;34.16
77467;DHT22;66564;42.482;25.548;2023-06-10T11:34:06;29.70;35.75
77467;DHT22;66564;42.482;25.548;2023-06-10T11:36:38;29.87;33.31
77467;DHT22;66564;42.482;25.548;2023-06-10T11:39:06;30.01;33.89
77467;DHT22;66564;42.482;25.548;2023-06-10T11:41:32;30.23;34.89
77467;DHT22;66564;42.482;25.548;2023-06-10T11:44:03;30.25;31.90
77467;DHT22;66564;42.482;25.548;2023-06-10T11:46:29;30.28;31.85
77467;DHT22;66564;42.482;25.548;2023-06-10T11:48:59;30.52;32.76
77467;DHT22;66564;42.482;25.548;2023-06-10T11:51:32;30.62;33.18
77467;DHT22;66564;42.482;25.548;2023-06-10T11:53:57;30.65;32.40
77467;DHT22;66564;42.482;25.548;2023-06-10T11:56:27;30.69;33.23
77467;DHT22;66564;42.482;25.548;2023-06-10T11:59:03;30.81;32.86
77467;DHT22;66564;42.482;25.548;2023-06-10T12:01:30;30.85;33.48
77467;DHT22;66564;42.482;25.548;2023-06-10T12:04:07;30.93;33.22
77467;DHT22;66564;42.482;25.548;2023-06-10T12:09:27;30.69;32.28
77467;DHT22;66564;42.482;25.548;2023-06-10T12:11:59;30.61;33.58
77467;DHT22;66564;42.482;25.548;2023-06-10T12:15:00;30.55;33.89
77467;DHT22;66564;42.482;25.548;2023-06-10T12:20:06;30.18;33.76
77467;DHT22;66564;42.482;25.548;2023-06-10T12:22:37;30.17;34.43
77467;DHT22;66564;42.482;25.548;2023-06-10T12:25:04;30.17;35.31
77467;DHT22;66564;42.482;25.548;2023-06-10T12:27:33;30.13;34.26
77467;DHT22;66564;42.482;25.548;2023-06-10T12:29:59;30.04;33.94
77467;DHT22;66564;42.482;25.548;2023-06-10T12:32:45;30.08;34.64
77467;DHT22;66564;42.482;25.548;2023-06-10T12:35:15;30.23;35.63
77467;DHT22;66564;42.482;25.548;2023-06-10T12:37:43;30.39;34.43
77467;DHT22;66564;42.482;25.548;2023-06-10T12:40:32;30.14;34.29
77467;DHT22;66564;42.482;25.548;2023-06-10T12:42:58;30.48;34.12
77467;DHT22;66564;42.482;25.548;2023-06-10T12:45:32;30.76;34.68
77467;DHT22;66564;42.482;25.548;2023-06-10T12:48:24;31.04;34.69
77467;DHT22;66564;42.482;25.548;2023-06-10T12:50:54;31.27;33.26
77467;DHT22;66564;42.482;25.548;2023-06-10T12:53:21;31.47;33.10
77467;DHT22;66564;42.482;25.548;2023-06-10T12:55:48;31.69;33.32
77467;DHT22;66564;42.482;25.548;2023-06-10T12:58:14;31.88;33.67
77467;DHT22;66564;42.482;25.548;2023-06-10T13:00:40;32.06;32.96
77467;DHT22;66564;42.482;25.548;2023-06-10T13:03:08;32.28;32.72
77467;DHT22;66564;42.482;25.548;2023-06-10T13:05:35;32.48;30.36
77467;DHT22;66564;42.482;25.548;2023-06-10T13:08:03;32.60;30.56
77467;DHT22;66564;42.482;25.548;2023-06-10T13:10:28;32.72;30.42
77467;DHT22;66564;42.482;25.548;2023-06-10T13:12:54;32.85;31.66
77467;DHT22;66564;42.482;25.548;2023-06-10T13:15:22;33.03;30.54
77467;DHT22;66564;42.482;25.548;2023-06-10T13:17:48;33.16;29.49
77467;DHT22;66564;42.482;25.548;2023-06-10T13:20:15;33.19;28.82
77467;DHT22;66564;42.482;25.548;2023-06-10T13:22:41;33.29;29.55
77467;DHT22;66564;42.482;25.548;2023-06-10T13:25:07;33.29;29.84
77467;DHT22;66564;42.482;25.548;2023-06-10T13:27:37;33.09;27.83
77467;DHT22;66564;42.482;25.548;2023-06-10T13:30:08;32.94;28.46
77467;DHT22;66564;42.482;25.548;2023-06-10T13:32:35;32.35;28.49
77467;DHT22;66564;42.482;25.548;2023-06-10T13:35:00;32.18;29.29
77467;DHT22;66564;42.482;25.548;2023-06-10T13:37:26;31.88;28.62
77467;DHT22;66564;42.482;25.548;2023-06-10T13:39:52;32.00;29.39
77467;DHT22;66564;42.482;25.548;2023-06-10T13:42:18;31.97;29.41
77467;DHT22;66564;42.482;25.548;2023-06-10T13:44:44;31.74;29.33
77467;DHT22;66564;42.482;25.548;2023-06-10T13:47:09;31.69;29.54
77467;DHT22;66564;42.482;25.548;2023-06-10T13:49:35;31.63;29.35
77467;DHT22;66564;42.482;25.548;2023-06-10T13:52:01;31.54;29.18
77467;DHT22;66564;42.482;25.548;2023-06-10T13:54:27;31.49;29.37
77467;DHT22;66564;42.482;25.548;2023-06-10T13:56:53;31.46;29.84
77467;DHT22;66564;42.482;25.548;2023-06-10T13:59:19;31.47;31.82
77467;DHT22;66564;42.482;25.548;2023-06-10T14:01:45;31.34;30.53
77467;DHT22;66564;42.482;25.548;2023-06-10T14:04:10;31.22;30.23
77467;DHT22;66564;42.482;25.548;2023-06-10T14:06:36;31.11;30.83
77467;DHT22;66564;42.482;25.548;2023-06-10T14:09:02;30.98;30.58
77467;DHT22;66564;42.482;25.548;2023-06-10T14:11:27;30.83;31.06
77467;DHT22;66564;42.482;25.548;2023-06-10T14:13:53;30.75;33.72
77467;DHT22;66564;42.482;25.548;2023-06-10T14:16:21;30.64;34.40
77467;DHT22;66564;42.482;25.548;2023-06-10T14:18:47;30.48;33.93
77467;DHT22;66564;42.482;25.548;2023-06-10T14:21:12;30.39;35.59
77467;DHT22;66564;42.482;25.548;2023-06-10T14:23:38;30.29;36.54
77467;DHT22;66564;42.482;25.548;2023-06-10T14:26:03;30.20;37.18
77467;DHT22;66564;42.482;25.548;2023-06-10T14:28:30;30.08;36.35
77467;DHT22;66564;42.482;25.548;2023-06-10T14:30:56;29.94;36.63
77467;DHT22;66564;42.482;25.548;2023-06-10T14:33:23;29.84;35.91
77467;DHT22;66564;42.482;25.548;2023-06-10T14:35:48;29.70;36.38
77467;DHT22;66564;42.482;25.548;2023-06-10T14:38:14;29.52;36.39
77467;DHT22;66564;42.482;25.548;2023-06-10T14:40:39;29.39;36.93
77467;DHT22;66564;42.482;25.548;2023-06-10T14:43:05;29.27;37.29
77467;DHT22;66564;42.482;25.548;2023-06-10T14:45:38;29.20;37.45
77467;DHT22;66564;42.482;25.548;2023-06-10T14:48:05;29.18;37.40
77467;DHT22;66564;42.482;25.548;2023-06-10T14:50:31;29.13;37.99
77467;DHT22;66564;42.482;25.548;2023-06-10T14:52:57;29.05;37.59
77467;DHT22;66564;42.482;25.548;2023-06-10T14:55:23;28.96;38.02
77467;DHT22;66564;42.482;25.548;2023-06-10T14:57:49;28.87;37.83
77467;DHT22;66564;42.482;25.548;2023-06-10T15:00:23;28.75;38.10
77467;DHT22;66564;42.482;25.548;2023-06-10T15:02:49;28.61;38.57
77467;DHT22;66564;42.482;25.548;2023-06-10T15:05:16;28.51;38.40
77467;DHT22;66564;42.482;25.548;2023-06-10T15:07:43;28.45;39.46
77467;DHT22;66564;42.482;25.548;2023-06-10T15:10:09;28.34;39.78
77467;DHT22;66564;42.482;25.548;2023-06-10T15:12:35;28.31;40.60
77467;DHT22;66564;42.482;25.548;2023-06-10T15:15:00;28.25;42.05
77467;DHT22;66564;42.482;25.548;2023-06-10T15:17:26;28.20;41.98
77467;DHT22;66564;42.482;25.548;2023-06-10T15:19:51;28.13;40.80
77467;DHT22;66564;42.482;25.548;2023-06-10T15:22:17;28.00;39.79
77467;DHT22;66564;42.482;25.548;2023-06-10T15:24:42;27.93;39.35
77467;DHT22;66564;42.482;25.548;2023-06-10T15:27:08;27.86;40.18
77467;DHT22;66564;42.482;25.548;2023-06-10T15:29:33;27.77;41.00
77467;DHT22;66564;42.482;25.548;2023-06-10T15:31:59;27.71;42.49
77467;DHT22;66564;42.482;25.548;2023-06-10T15:34:24;27.60;41.87
77467;DHT22;66564;42.482;25.548;2023-06-10T15:36:50;27.50;42.05
77467;DHT22;66564;42.482;25.548;2023-06-10T15:39:15;27.43;42.18
77467;DHT22;66564;42.482;25.548;2023-06-10T15:41:41;27.33;42.91
77467;DHT22;66564;42.482;25.548;2023-06-10T15:44:06;27.26;43.04
77467;DHT22;66564;42.482;25.548;2023-06-10T15:46:32;27.18;44.66